Terminal Aerodrome Forecast
Issued by NWS

Home | Current Version | Previous Version | Text Only | Print | Product List | Glossary On
Versions: 1 2 3 4 5 6 7 8 9 10 11 12 13 14 15 16 17 18 19 20
000
FTUS46 KPQR 241730
TAFONP
TAF
KONP 241730Z 2418/2518 31015G25KT P6SM -SHRA SCT025 BKN035 BKN060
     FM242200 31011G22KT P6SM VCSH SCT025 BKN045
     FM250200 31010KT P6SM SCT030 BKN050
     FM250800 21010G17KT P6SM -RA OVC040
     FM251200 20017G25KT 5SM -RA SCT015 OVC025=

USA.gov is the U.S. government's official web portal to all federal, state and local government web resources and services.